Time;durP1;ratioP1;P1;durP2;ratioP2;P2;SDS_P1;SDS_P2;PMS_P1;PMS_P2;Temp;Humidity;BMP_temperature;BMP_pressure;BME280_temperature;BME280_humidity;BME280_pressure;Samples;Min_cycle;Max_cycle;Signal;HPM_P1;HPM_P2
2022/10/23 04:00:33;;;;;;;9.23;6.60;;;13.00;99.90;;;;;;5934645;23;20464;-65
2022/10/23 04:03:00;;;;;;;7.40;6.67;;;13.00;99.90;;;;;;4975504;28;20435;-65
2022/10/23 04:05:27;;;;;;;10.53;6.20;;;13.00;99.90;;;;;;4975518;28;20485;-65
2022/10/23 04:07:53;;;;;;;6.33;5.83;;;13.00;99.90;;;;;;4975370;28;20459;-66
2022/10/23 04:10:20;;;;;;;11.37;5.80;;;13.00;99.90;;;;;;4975270;28;20458;-66
2022/10/23 04:12:47;;;;;;;7.43;6.73;;;13.00;99.90;;;;;;4975532;28;20454;-66
2022/10/23 04:15:13;;;;;;;6.97;6.37;;;13.00;99.90;;;;;;4975219;28;20500;-65
2022/10/23 04:17:41;;;;;;;6.03;5.63;;;13.00;99.90;;;;;;4975348;28;20490;-66
2022/10/23 04:20:09;;;;;;;8.83;6.00;;;12.90;99.90;;;;;;4975338;28;20458;-65
2022/10/23 04:22:35;;;;;;;7.63;6.10;;;12.90;99.90;;;;;;4975376;28;20482;-66
2022/10/23 04:25:02;;;;;;;10.47;6.50;;;12.90;99.90;;;;;;4975902;28;20463;-64
2022/10/23 04:27:29;;;;;;;8.07;6.10;;;12.90;99.90;;;;;;4975792;28;20455;-64
2022/10/23 04:29:55;;;;;;;11.47;6.60;;;12.80;99.90;;;;;;4976076;28;20459;-65
2022/10/23 04:32:22;;;;;;;7.10;6.40;;;12.80;99.90;;;;;;4978124;28;20529;-66
2022/10/23 04:34:50;;;;;;;8.33;6.90;;;12.80;99.90;;;;;;4978093;28;20579;-66
2022/10/23 04:37:17;;;;;;;7.20;5.80;;;12.70;99.90;;;;;;4976234;28;20454;-66
2022/10/23 04:39:43;;;;;;;7.53;6.60;;;12.80;99.90;;;;;;4975785;28;20454;-65
2022/10/23 04:42:10;;;;;;;8.50;5.90;;;12.70;99.90;;;;;;4975590;28;20529;-66
2022/10/23 04:44:37;;;;;;;9.53;6.10;;;12.70;99.90;;;;;;4975831;28;20529;-65
2022/10/23 04:47:03;;;;;;;7.63;6.33;;;12.70;99.90;;;;;;4975246;28;20478;-66
2022/10/23 04:49:30;;;;;;;7.07;6.37;;;12.70;99.90;;;;;;4975427;28;20458;-66
2022/10/23 04:51:58;;;;;;;8.37;7.40;;;12.70;99.90;;;;;;4981584;28;20471;-65
2022/10/23 04:54:25;;;;;;;8.20;7.30;;;12.60;99.90;;;;;;4997031;28;20449;-66
2022/10/23 04:56:51;;;;;;;7.80;7.10;;;12.60;99.90;;;;;;4998197;28;20459;-65
2022/10/23 04:59:18;;;;;;;10.73;6.80;;;12.60;99.90;;;;;;4997690;28;20450;-65
2022/10/23 05:01:45;;;;;;;8.50;6.83;;;12.60;99.90;;;;;;4991386;28;20514;-65
2022/10/23 05:04:12;;;;;;;9.60;6.87;;;12.60;99.90;;;;;;4979265;28;20458;-65
2022/10/23 05:06:39;;;;;;;8.03;7.20;;;12.60;99.90;;;;;;4978578;28;20570;-65
2022/10/23 05:09:07;;;;;;;7.93;6.20;;;12.60;99.90;;;;;;4978717;28;20462;-65
2022/10/23 05:11:34;;;;;;;18.27;8.13;;;12.60;99.90;;;;;;4978198;28;20811;-66
2022/10/23 05:14:00;;;;;;;9.43;6.00;;;12.60;99.90;;;;;;4978243;28;20506;-64
2022/10/23 05:16:36;;;;;;;8.67;6.60;;;12.60;99.90;;;;;;4978388;28;20505;-65
2022/10/23 05:19:03;;;;;;;7.13;6.63;;;12.60;99.90;;;;;;4978063;28;20450;-65
2022/10/23 05:21:34;;;;;;;11.07;6.27;;;12.70;99.90;;;;;;4977976;28;20474;-65
2022/10/23 05:24:01;;;;;;;9.77;7.43;;;12.70;99.90;;;;;;4978110;28;20450;-65
2022/10/23 05:26:30;;;;;;;6.50;5.83;;;12.70;99.90;;;;;;4977932;28;20910;-65
2022/10/23 05:28:57;;;;;;;7.70;6.07;;;12.70;99.90;;;;;;4977748;28;20517;-64
2022/10/23 05:31:25;;;;;;;6.33;5.83;;;12.70;99.90;;;;;;4977752;28;20486;-65
2022/10/23 05:33:52;;;;;;;6.37;5.77;;;12.70;99.90;;;;;;4977656;28;20941;-65
2022/10/23 05:36:19;;;;;;;6.27;5.57;;;12.70;99.90;;;;;;4977388;28;20458;-65
2022/10/23 05:38:46;;;;;;;22.27;6.93;;;12.70;99.90;;;;;;4977785;28;20454;-65
2022/10/23 05:41:13;;;;;;;7.00;6.20;;;12.80;99.90;;;;;;4977908;28;20478;-65
2022/10/23 05:43:41;;;;;;;11.30;7.07;;;12.80;99.90;;;;;;4977802;28;20513;-65
2022/10/23 05:46:07;;;;;;;7.10;6.40;;;12.80;99.90;;;;;;4977637;28;20478;-65
2022/10/23 05:48:34;;;;;;;8.30;7.60;;;12.70;99.90;;;;;;4977337;28;20872;-65
2022/10/23 05:51:05;;;;;;;9.27;7.63;;;12.80;99.90;;;;;;4977648;28;20881;-66
2022/10/23 05:53:32;;;;;;;8.03;6.73;;;12.70;99.90;;;;;;4977532;28;20458;-66
2022/10/23 05:56:04;;;;;;;7.10;6.43;;;12.70;99.90;;;;;;4977721;28;20517;-66
2022/10/23 05:58:31;;;;;;;7.73;6.63;;;12.70;99.90;;;;;;4977632;28;20450;-66
2022/10/23 06:00:59;;;;;;;7.40;6.77;;;12.60;99.90;;;;;;4977337;28;20542;-66
2022/10/23 06:03:26;;;;;;;9.13;6.13;;;12.70;99.90;;;;;;4977452;28;20458;-65
2022/10/23 06:05:53;;;;;;;6.80;6.30;;;12.70;99.90;;;;;;4977971;28;20482;-65
2022/10/23 06:08:19;;;;;;;9.80;6.43;;;12.60;99.90;;;;;;4977407;28;20505;-66
2022/10/23 06:10:46;;;;;;;13.20;7.50;;;12.60;99.90;;;;;;4982169;28;20478;-66
2022/10/23 06:13:13;;;;;;;7.60;6.10;;;12.60;99.90;;;;;;4982355;28;20458;-65
2022/10/23 06:15:39;;;;;;;10.27;6.33;;;12.60;99.90;;;;;;4981813;28;20462;-65
2022/10/23 06:18:07;;;;;;;6.93;6.23;;;12.60;99.90;;;;;;4982829;28;20474;-63
2022/10/23 06:20:36;;;;;;;11.50;7.30;;;12.60;99.90;;;;;;4982077;28;20545;-63
2022/10/23 06:23:03;;;;;;;7.67;6.90;;;12.60;99.90;;;;;;4976766;28;21016;-63
2022/10/23 06:25:30;;;;;;;8.73;7.10;;;12.60;99.90;;;;;;4976917;28;20462;-62
2022/10/23 06:27:56;;;;;;;8.20;6.50;;;12.60;99.90;;;;;;4976772;28;20945;-64
2022/10/23 06:30:23;;;;;;;11.67;6.90;;;12.60;99.90;;;;;;4976827;28;20467;-63
2022/10/23 06:32:50;;;;;;;6.97;6.37;;;12.60;99.90;;;;;;4976697;28;21004;-63
2022/10/23 06:35:18;;;;;;;7.57;6.87;;;12.60;99.90;;;;;;4977046;28;20459;-63
2022/10/23 06:37:44;;;;;;;8.43;7.63;;;12.60;99.90;;;;;;4977243;28;20458;-63
2022/10/23 06:40:11;;;;;;;8.83;6.10;;;12.70;99.90;;;;;;4977118;28;20455;-64
2022/10/23 06:42:38;;;;;;;11.83;6.90;;;12.70;99.90;;;;;;4976789;28;20455;-62
2022/10/23 06:45:05;;;;;;;7.00;6.40;;;12.70;99.90;;;;;;4976621;28;20507;-66
2022/10/23 06:47:32;;;;;;;6.90;5.70;;;12.90;99.90;;;;;;4976690;28;20537;-63
2022/10/23 06:49:59;;;;;;;5.60;5.10;;;13.00;99.90;;;;;;4976639;28;20463;-63
2022/10/23 06:52:30;;;;;;;8.50;5.73;;;13.00;99.90;;;;;;4976526;28;21016;-62
2022/10/23 06:54:57;;;;;;;5.90;5.37;;;13.10;99.90;;;;;;4977231;28;21001;-65
2022/10/23 06:57:23;;;;;;;6.60;5.87;;;13.20;99.90;;;;;;4977592;28;20505;-63
2022/10/23 06:59:50;;;;;;;7.03;5.93;;;13.20;99.90;;;;;;4977297;28;20505;-63
2022/10/23 07:02:17;;;;;;;6.57;5.87;;;13.30;99.90;;;;;;4977172;28;20486;-62
2022/10/23 07:04:43;;;;;;;5.30;4.80;;;13.40;99.90;;;;;;4977196;28;20459;-61
2022/10/23 07:07:10;;;;;;;8.27;5.57;;;13.60;99.90;;;;;;4976958;28;20475;-61
2022/10/23 07:09:38;;;;;;;7.43;4.70;;;13.70;99.90;;;;;;4976768;28;20459;-61
2022/10/23 07:12:05;;;;;;;5.93;4.47;;;13.80;99.90;;;;;;4976790;28;20479;-61
2022/10/23 07:14:32;;;;;;;5.40;4.70;;;13.90;99.90;;;;;;4986416;28;20454;-63
2022/10/23 07:16:58;;;;;;;7.60;4.73;;;14.10;99.90;;;;;;4985846;28;20459;-62
2022/10/23 07:19:25;;;;;;;8.13;5.10;;;14.20;99.90;;;;;;4985203;28;20451;-62
2022/10/23 07:21:52;;;;;;;6.63;4.20;;;14.30;99.90;;;;;;4981583;28;20475;-61
2022/10/23 07:24:18;;;;;;;5.60;5.20;;;14.40;99.90;;;;;;4976618;28;20455;-62
2022/10/23 07:26:47;;;;;;;6.10;4.27;;;14.50;99.90;;;;;;4976059;28;20478;-61
2022/10/23 07:29:13;;;;;;;4.33;4.03;;;14.60;99.90;;;;;;4978978;28;21032;-61
2022/10/23 07:31:40;;;;;;;5.50;4.50;;;14.70;99.90;;;;;;4982898;28;20470;-63
2022/10/23 07:34:06;;;;;;;7.37;4.27;;;14.90;99.90;;;;;;4979484;28;20458;-63
2022/10/23 07:36:33;;;;;;;4.90;4.50;;;15.10;99.90;;;;;;4976464;28;20518;-63
2022/10/23 07:39:00;;;;;;;4.40;3.30;;;15.30;99.90;;;;;;4976355;28;20454;-63
2022/10/23 07:41:26;;;;;;;3.80;3.50;;;15.50;99.90;;;;;;4975756;28;20549;-62
2022/10/23 07:43:54;;;;;;;3.20;3.00;;;15.70;99.90;;;;;;4976064;28;20521;-62
2022/10/23 07:46:22;;;;;;;3.33;2.90;;;15.90;99.90;;;;;;4975892;28;20576;-62
2022/10/23 07:48:49;;;;;;;3.60;3.40;;;16.00;99.90;;;;;;4975852;28;20455;-62
2022/10/23 07:51:17;;;;;;;5.33;3.50;;;16.30;99.90;;;;;;4975848;28;20483;-62
2022/10/23 07:53:44;;;;;;;3.87;3.57;;;16.50;99.90;;;;;;4975720;28;20454;-62
2022/10/23 07:56:14;;;;;;;3.60;3.37;;;16.70;99.90;;;;;;4975790;28;20462;-63
2022/10/23 07:58:41;;;;;;;4.20;3.10;;;16.90;99.90;;;;;;4975746;28;20443;-63
2022/10/23 08:01:17;;;;;;;3.40;2.77;;;17.10;99.90;;;;;;4975473;28;20490;-62
2022/10/23 08:03:43;;;;;;;7.80;3.07;;;17.70;99.90;;;;;;4975364;28;20445;-62
2022/10/23 08:06:10;;;;;;;2.93;2.67;;;18.30;99.90;;;;;;4975332;28;20454;-62
2022/10/23 08:08:37;;;;;;;3.43;2.30;;;19.00;99.90;;;;;;4975517;28;20455;-62
2022/10/23 08:11:03;;;;;;;3.47;2.40;;;19.50;99.90;;;;;;4975457;28;20482;-62
2022/10/23 08:13:30;;;;;;;8.23;2.60;;;20.10;99.90;;;;;;4975251;28;20454;-62
2022/10/23 08:15:57;;;;;;;4.33;2.93;;;20.50;99.90;;;;;;4975105;28;20972;-62
2022/10/23 08:18:25;;;;;;;3.47;2.70;;;20.70;99.90;;;;;;4974982;28;21119;-62
2022/10/23 08:20:52;;;;;;;2.63;2.43;;;21.00;99.90;;;;;;4975338;28;20475;-62
2022/10/23 08:23:19;;;;;;;5.13;3.10;;;21.30;99.90;;;;;;4975402;28;20505;-62
2022/10/23 08:25:46;;;;;;;4.47;2.40;;;21.50;99.90;;;;;;4974883;28;20463;-62
2022/10/23 08:28:14;;;;;;;2.00;1.90;;;21.90;99.90;;;;;;4979015;28;20479;-63
2022/10/23 08:30:41;;;;;;;1.80;1.77;;;22.30;99.90;;;;;;4982084;28;20501;-64
2022/10/23 08:33:07;;;;;;;2.03;1.83;;;22.20;99.90;;;;;;4979939;28;21004;-63
2022/10/23 08:35:37;;;;;;;11.23;3.37;;;22.40;99.90;;;;;;4979384;28;20455;-64
2022/10/23 08:38:05;;;;;;;8.30;7.07;;;22.80;99.90;;;;;;4980517;28;20450;-64
2022/10/23 08:40:33;;;;;;;15.33;11.80;;;23.20;99.90;;;;;;4978711;28;20854;-63
2022/10/23 08:43:06;;;;;;;2.20;2.00;;;23.40;99.90;;;;;;4978784;28;20867;-63
2022/10/23 08:45:37;;;;;;;3.37;2.30;;;23.40;99.90;;;;;;4978583;28;20910;-62
2022/10/23 08:48:10;;;;;;;2.50;2.30;;;23.00;99.90;;;;;;4978498;28;20943;-64
2022/10/23 08:50:42;;;;;;;1.70;1.60;;;22.70;99.90;;;;;;4979086;28;20474;-64
2022/10/23 08:53:15;;;;;;;2.13;1.93;;;22.70;99.90;;;;;;4978833;28;20515;-64
2022/10/23 08:55:45;;;;;;;3.60;2.00;;;22.60;99.90;;;;;;4978830;28;20447;-64
2022/10/23 08:58:18;;;;;;;2.30;2.10;;;22.50;99.90;;;;;;4978787;28;20462;-65
2022/10/23 09:00:47;;;;;;;2.30;2.10;;;22.90;99.90;;;;;;4978512;28;20486;-66
2022/10/23 09:03:14;;;;;;;3.00;2.17;;;23.10;99.90;;;;;;4978661;28;20463;-67
2022/10/23 09:05:57;;;;;;;3.43;2.40;;;23.50;99.90;;;;;;4978795;28;20459;-67
2022/10/23 09:08:39;;;;;;;2.07;1.97;;;23.70;99.90;;;;;;4978450;28;20462;-67
2022/10/23 09:11:11;;;;;;;4.27;2.00;;;24.20;99.90;;;;;;4978523;28;20478;-67
2022/10/23 09:14:03;;;;;;;2.43;2.10;;;25.10;99.90;;;;;;4978475;28;20502;-65
2022/10/23 09:16:46;;;;;;;4.40;2.10;;;26.00;98.40;;;;;;4946115;28;20454;-70
2022/10/23 09:19:16;;;;;;;1.70;1.60;;;26.70;98.20;;;;;;4978184;28;20919;-66
2022/10/23 09:21:48;;;;;;;1.70;1.60;;;27.40;94.40;;;;;;4978181;28;20488;-67
2022/10/23 09:24:17;;;;;;;1.70;1.60;;;27.80;91.60;;;;;;4978437;28;20435;-67
2022/10/23 09:26:47;;;;;;;1.63;1.53;;;28.10;91.40;;;;;;4978875;28;20907;-67
2022/10/23 09:29:21;;;;;;;1.47;1.37;;;28.00;90.00;;;;;;4978097;28;20454;-67
2022/10/23 09:31:49;;;;;;;3.13;2.67;;;28.20;90.50;;;;;;4978362;28;20477;-67
2022/10/23 09:34:19;;;;;;;1.40;1.30;;;28.40;89.20;;;;;;4979594;28;20482;-67
2022/10/23 09:36:51;;;;;;;3.43;1.50;;;28.60;87.00;;;;;;4979032;28;20494;-67
2022/10/23 09:39:28;;;;;;;1.90;1.40;;;28.70;85.20;;;;;;4978348;28;20443;-68
2022/10/23 09:41:55;;;;;;;1.30;1.30;;;29.10;82.20;;;;;;4977861;28;20482;-68
2022/10/23 09:44:24;;;;;;;4.80;1.40;;;29.30;79.80;;;;;;4977789;28;20529;-70
2022/10/23 09:46:53;;;;;;;3.10;1.50;;;29.00;79.00;;;;;;4977590;28;21005;-67
2022/10/23 09:49:22;;;;;;;2.40;1.63;;;29.10;78.40;;;;;;4977798;28;20550;-69
2022/10/23 09:52:03;;;;;;;1.97;1.37;;;29.00;78.70;;;;;;4977720;28;20545;-67
2022/10/23 09:54:33;;;;;;;10.20;1.80;;;28.90;79.40;;;;;;4977509;28;20864;-68
2022/10/23 09:57:05;;;;;;;1.90;1.80;;;29.00;79.70;;;;;;4977208;28;20931;-69
2022/10/23 09:59:33;;;;;;;1.57;1.37;;;29.10;79.00;;;;;;4977876;28;20443;-68
2022/10/23 10:02:02;;;;;;;1.50;1.40;;;29.10;78.50;;;;;;4977177;28;20490;-68
2022/10/23 10:04:37;;;;;;;2.57;1.70;;;28.90;78.00;;;;;;4977513;28;20898;-69
2022/10/23 10:07:17;;;;;;;2.90;1.60;;;28.80;78.10;;;;;;4977300;28;20532;-68
2022/10/23 10:09:43;;;;;;;1.70;1.60;;;28.70;79.40;;;;;;4977651;28;20439;-68
2022/10/23 10:12:37;;;;;;;4.20;1.67;;;28.50;79.00;;;;;;4977468;28;20478;-67
2022/10/23 10:15:15;;;;;;;2.60;1.53;;;28.40;80.10;;;;;;4977617;28;20521;-68
2022/10/23 10:17:49;;;;;;;1.73;1.63;;;28.00;80.70;;;;;;4978066;28;20434;-68
2022/10/23 10:20:35;;;;;;;1.67;1.57;;;27.70;81.30;;;;;;4977418;28;20497;-68
2022/10/23 10:23:10;;;;;;;1.80;1.73;;;27.70;83.80;;;;;;4978314;28;20442;-69
2022/10/23 10:25:44;;;;;;;7.07;1.70;;;27.70;82.40;;;;;;4977972;28;20449;-68
2022/10/23 10:28:28;;;;;;;2.27;1.70;;;27.60;82.60;;;;;;4982444;28;20470;-68
2022/10/23 10:31:04;;;;;;;1.63;1.53;;;27.10;83.90;;;;;;4983086;28;20533;-68
2022/10/23 10:33:39;;;;;;;3.50;2.23;;;26.70;85.00;;;;;;4978832;28;20430;-68
2022/10/23 10:36:17;;;;;;;3.83;1.67;;;26.30;85.50;;;;;;4978030;28;20442;-67
2022/10/23 10:38:49;;;;;;;4.50;1.77;;;26.10;88.10;;;;;;4977340;28;20443;-68
2022/10/23 10:41:29;;;;;;;5.80;1.87;;;26.10;89.90;;;;;;4977952;28;20478;-68
2022/10/23 10:44:12;;;;;;;1.90;1.50;;;26.10;89.30;;;;;;4977313;28;20442;-67
2022/10/23 10:46:49;;;;;;;4.03;1.80;;;26.10;87.90;;;;;;4977067;28;20472;-68
2022/10/23 10:49:22;;;;;;;2.30;1.80;;;25.90;89.30;;;;;;4976032;28;20435;-68
2022/10/23 10:52:00;;;;;;;2.00;1.80;;;25.80;88.90;;;;;;4976852;28;20478;-68
2022/10/23 10:54:40;;;;;;;3.37;2.27;;;25.50;89.60;;;;;;4976853;28;20497;-68
2022/10/23 10:57:17;;;;;;;1.90;1.80;;;25.20;90.50;;;;;;4976230;28;20910;-67
2022/10/23 10:59:50;;;;;;;1.60;1.50;;;25.00;91.00;;;;;;4976588;28;20439;-67
2022/10/23 11:02:26;;;;;;;1.87;1.73;;;24.80;91.90;;;;;;4976143;28;20479;-68
2022/10/23 11:04:57;;;;;;;3.13;1.40;;;24.40;91.40;;;;;;4976438;28;20489;-67
2022/10/23 11:07:29;;;;;;;1.70;1.17;;;23.90;91.10;;;;;;4976951;28;20521;-67
2022/10/23 11:10:00;;;;;;;2.20;1.40;;;23.70;92.20;;;;;;4976266;28;20443;-68
2022/10/23 11:12:28;;;;;;;3.53;1.57;;;23.50;93.20;;;;;;4976252;28;20486;-68
2022/10/23 11:14:56;;;;;;;2.57;1.90;;;23.30;93.40;;;;;;4976589;28;20465;-67
2022/10/23 11:17:27;;;;;;;3.80;3.50;;;23.10;94.00;;;;;;4976152;28;20856;-67
2022/10/23 11:20:02;;;;;;;1.60;1.50;;;23.00;95.30;;;;;;4976044;28;20923;-68
2022/10/23 11:22:35;;;;;;;1.70;1.60;;;22.90;95.10;;;;;;4976424;28;20473;-68
2022/10/23 11:25:21;;;;;;;1.57;1.47;;;22.90;95.70;;;;;;4976575;28;20446;-67
2022/10/23 11:28:09;;;;;;;4.20;1.30;;;22.80;96.00;;;;;;4976842;28;20467;-68
2022/10/23 11:30:47;;;;;;;1.30;1.20;;;22.80;97.00;;;;;;4963689;28;20512;-67
2022/10/23 11:33:47;;;;;;;3.20;2.17;;;22.80;97.70;;;;;;4976000;28;20512;-68
2022/10/23 11:36:17;;;;;;;2.10;1.87;;;22.70;97.60;;;;;;4976443;28;20458;-68
2022/10/23 11:38:46;;;;;;;2.00;1.90;;;22.60;97.80;;;;;;4977146;28;20769;-68
2022/10/23 11:41:23;;;;;;;3.33;1.70;;;22.50;98.90;;;;;;4977009;28;20812;-68
2022/10/23 11:43:51;;;;;;;3.13;2.00;;;22.40;99.20;;;;;;4976744;28;20445;-67
2022/10/23 11:46:32;;;;;;;4.60;2.13;;;22.20;99.20;;;;;;4975698;28;20501;-67
2022/10/23 11:49:01;;;;;;;1.80;1.70;;;22.20;99.90;;;;;;4975601;28;20818;-68
2022/10/23 11:51:30;;;;;;;2.47;1.70;;;22.10;99.80;;;;;;4975637;28;20475;-68
2022/10/23 11:54:07;;;;;;;1.80;1.70;;;22.00;99.50;;;;;;4975445;28;20970;-67
2022/10/23 11:56:36;;;;;;;1.97;1.77;;;21.90;99.90;;;;;;4975544;28;20462;-68
2022/10/23 11:59:22;;;;;;;3.40;1.70;;;21.80;99.90;;;;;;4975741;28;20859;-68
2022/10/23 12:01:51;;;;;;;1.73;1.60;;;21.70;99.90;;;;;;4975298;28;20569;-68
2022/10/23 12:04:22;;;;;;;1.83;1.73;;;21.70;99.90;;;;;;4975506;28;20870;-68
2022/10/23 12:06:52;;;;;;;2.03;1.70;;;21.70;99.90;;;;;;4975171;28;20933;-67
2022/10/23 12:09:28;;;;;;;2.63;2.00;;;21.70;99.90;;;;;;4975376;28;20514;-66
2022/10/23 12:12:14;;;;;;;1.40;1.40;;;21.70;99.90;;;;;;4975525;28;20474;-68
2022/10/23 12:14:45;;;;;;;1.50;1.47;;;21.80;99.90;;;;;;4975905;28;20439;-69
2022/10/23 12:17:31;;;;;;;3.13;2.37;;;21.90;99.90;;;;;;4975434;28;20918;-70
2022/10/23 12:20:19;;;;;;;1.90;1.80;;;22.00;99.90;;;;;;4975098;28;20911;-69
2022/10/23 12:22:51;;;;;;;2.43;2.10;;;22.10;99.90;;;;;;4975907;28;20550;-69
2022/10/23 12:25:23;;;;;;;2.00;1.90;;;22.20;99.90;;;;;;4976019;28;20446;-69
2022/10/23 12:27:58;;;;;;;6.63;4.47;;;22.30;99.90;;;;;;4975762;28;20970;-68
2022/10/23 12:30:33;;;;;;;8.40;4.47;;;22.50;99.90;;;;;;4974980;28;20909;-69
2022/10/23 12:33:11;;;;;;;4.30;2.90;;;22.40;99.90;;;;;;4975832;28;20438;-69
2022/10/23 12:36:01;;;;;;;3.80;3.50;;;22.50;99.90;;;;;;4975886;28;20454;-69
2022/10/23 12:38:29;;;;;;;4.40;1.87;;;22.60;99.90;;;;;;4975861;28;20438;-69
2022/10/23 12:41:03;;;;;;;2.60;2.40;;;22.60;99.90;;;;;;4975346;28;21045;-69
2022/10/23 12:43:34;;;;;;;4.97;4.63;;;22.60;99.90;;;;;;4974901;28;20444;-69
2022/10/23 12:46:07;;;;;;;7.27;6.57;;;22.80;99.90;;;;;;4975371;28;20443;-69
2022/10/23 12:48:34;;;;;;;4.57;4.27;;;22.90;99.90;;;;;;4974977;28;20517;-69
2022/10/23 12:51:01;;;;;;;2.40;2.20;;;23.10;99.90;;;;;;4975007;28;20532;-69
2022/10/23 12:53:27;;;;;;;1.70;1.60;;;23.30;99.90;;;;;;4975565;28;20458;-68
2022/10/23 12:55:58;;;;;;;1.90;1.80;;;23.30;99.90;;;;;;4976419;28;20517;-69
2022/10/23 12:58:28;;;;;;;2.03;1.83;;;23.50;99.90;;;;;;4976211;28;20899;-69
2022/10/23 13:00:59;;;;;;;2.17;2.07;;;23.50;99.90;;;;;;4975705;28;21009;-69
2022/10/23 13:03:27;;;;;;;6.33;1.60;;;23.60;99.90;;;;;;4976293;28;20443;-70
2022/10/23 13:05:58;;;;;;;2.37;1.50;;;23.80;99.90;;;;;;4975274;28;20492;-69
2022/10/23 13:08:31;;;;;;;1.90;1.80;;;23.90;99.90;;;;;;4974756;28;20473;-69
2022/10/23 13:10:59;;;;;;;3.00;1.77;;;24.10;99.90;;;;;;4975093;28;20537;-68
2022/10/23 13:13:26;;;;;;;1.93;1.57;;;24.20;99.90;;;;;;4977419;28;20964;-69
2022/10/23 13:15:53;;;;;;;5.30;3.00;;;24.40;99.90;;;;;;4978824;28;20464;-67
2022/10/23 13:18:21;;;;;;;2.40;1.70;;;24.50;99.90;;;;;;4979175;28;20457;-66
2022/10/23 13:20:57;;;;;;;2.73;1.70;;;24.60;99.90;;;;;;4978488;28;20529;-67
2022/10/23 13:23:30;;;;;;;2.23;2.03;;;24.60;99.90;;;;;;4978119;28;20469;-66
2022/10/23 13:25:58;;;;;;;4.03;2.40;;;24.70;99.90;;;;;;4978245;28;20443;-67
2022/10/23 13:28:26;;;;;;;2.43;2.23;;;24.70;98.70;;;;;;4978197;28;20529;-67
2022/10/23 13:31:04;;;;;;;1.60;1.50;;;24.60;99.10;;;;;;4978303;28;20893;-67
2022/10/23 13:33:35;;;;;;;3.10;2.17;;;24.70;99.40;;;;;;4977960;28;20439;-66
2022/10/23 13:36:06;;;;;;;3.30;2.70;;;24.70;99.60;;;;;;4978001;28;20500;-63
2022/10/23 13:38:34;;;;;;;2.63;2.20;;;24.70;98.50;;;;;;4978034;28;20439;-63
2022/10/23 13:41:03;;;;;;;2.07;1.97;;;24.80;98.70;;;;;;4977905;28;20877;-64
2022/10/23 13:43:31;;;;;;;3.20;3.00;;;24.80;99.00;;;;;;4977835;28;20941;-63
2022/10/23 13:45:58;;;;;;;6.97;2.23;;;24.70;99.10;;;;;;4978587;28;20458;-63
2022/10/23 13:48:26;;;;;;;4.83;4.43;;;24.50;98.70;;;;;;4977668;28;20483;-62
2022/10/23 13:50:54;;;;;;;4.63;2.70;;;24.30;99.20;;;;;;4977580;28;20474;-64
2022/10/23 13:53:20;;;;;;;3.07;2.47;;;24.10;99.90;;;;;;4977626;28;20930;-65
2022/10/23 13:55:50;;;;;;;2.33;2.20;;;23.90;99.90;;;;;;4978074;28;20463;-64
2022/10/23 13:58:17;;;;;;;2.87;2.30;;;23.70;99.90;;;;;;4977869;28;20583;-64
2022/10/23 14:00:50;;;;;;;4.50;3.50;;;23.50;99.90;;;;;;4977580;28;20495;-63
2022/10/23 14:03:19;;;;;;;3.53;2.30;;;23.30;99.90;;;;;;4977602;28;20447;-63
2022/10/23 14:05:45;;;;;;;4.80;4.00;;;23.10;99.90;;;;;;4977445;28;20455;-63
2022/10/23 14:08:13;;;;;;;6.17;4.23;;;23.00;99.90;;;;;;4977435;28;20502;-64
2022/10/23 14:10:40;;;;;;;4.57;4.17;;;22.90;99.90;;;;;;4977359;28;20533;-64
2022/10/23 14:13:07;;;;;;;4.23;3.83;;;22.80;99.90;;;;;;4977366;28;20511;-63
2022/10/23 14:15:34;;;;;;;5.77;5.33;;;22.70;99.90;;;;;;4977423;28;20458;-63
2022/10/23 14:18:00;;;;;;;6.67;4.40;;;22.60;99.90;;;;;;4977445;28;20466;-63
2022/10/23 14:20:27;;;;;;;6.07;3.30;;;22.50;99.90;;;;;;4976902;28;20459;-64
2022/10/23 14:22:54;;;;;;;3.13;2.93;;;22.40;99.90;;;;;;4977047;28;20513;-63
2022/10/23 14:25:22;;;;;;;3.47;3.17;;;22.40;99.90;;;;;;4977340;28;20455;-63
2022/10/23 14:27:49;;;;;;;3.17;2.80;;;22.30;99.90;;;;;;4977039;28;20819;-64
2022/10/23 14:30:16;;;;;;;5.73;2.73;;;22.20;99.90;;;;;;4977020;28;20482;-63
2022/10/23 14:32:43;;;;;;;3.53;2.20;;;22.20;99.90;;;;;;4977052;28;20459;-64
2022/10/23 14:35:10;;;;;;;2.60;2.40;;;22.20;99.90;;;;;;4977499;28;20455;-63
2022/10/23 14:37:38;;;;;;;2.80;2.60;;;22.10;99.90;;;;;;4977179;28;20482;-64
2022/10/23 14:40:06;;;;;;;3.90;2.77;;;22.10;99.90;;;;;;4976870;28;20458;-64
2022/10/23 14:42:34;;;;;;;4.07;3.67;;;22.10;99.90;;;;;;4980065;28;20475;-64
2022/10/23 14:45:01;;;;;;;3.97;3.57;;;22.10;99.90;;;;;;4981127;28;20463;-65
2022/10/23 14:47:28;;;;;;;4.83;3.90;;;22.10;99.90;;;;;;4982097;28;20502;-66
2022/10/23 14:49:55;;;;;;;4.67;4.27;;;22.10;99.90;;;;;;4981297;28;20483;-64
2022/10/23 14:52:23;;;;;;;5.13;4.10;;;22.10;99.90;;;;;;4981101;28;20510;-65
2022/10/23 14:54:52;;;;;;;3.90;3.50;;;22.10;99.90;;;;;;4979767;28;20459;-64
2022/10/23 14:57:20;;;;;;;3.87;3.53;;;22.10;99.90;;;;;;4977427;28;21033;-65
2022/10/23 14:59:49;;;;;;;4.73;4.33;;;22.00;99.90;;;;;;4977556;28;20549;-65
2022/10/23 15:02:16;;;;;;;7.60;5.33;;;22.00;99.90;;;;;;4978502;28;20832;-65
2022/10/23 15:04:43;;;;;;;5.00;4.60;;;22.00;99.90;;;;;;4979475;28;20530;-65
2022/10/23 15:07:09;;;;;;;5.13;4.70;;;22.00;99.90;;;;;;4980304;28;20457;-65
2022/10/23 15:09:36;;;;;;;5.40;4.90;;;22.00;99.90;;;;;;4977141;28;20513;-64
2022/10/23 15:12:04;;;;;;;4.50;4.20;;;21.90;99.90;;;;;;4976803;28;20569;-69
2022/10/23 15:14:30;;;;;;;5.70;4.70;;;21.90;99.90;;;;;;4976719;28;20462;-69
2022/10/23 15:16:58;;;;;;;5.00;4.50;;;21.90;99.90;;;;;;4976622;28;20458;-69
2022/10/23 15:19:26;;;;;;;6.07;5.53;;;21.90;99.90;;;;;;4976242;28;20455;-69
2022/10/23 15:21:53;;;;;;;6.20;5.80;;;21.90;99.90;;;;;;4975273;28;20826;-69
2022/10/23 15:24:20;;;;;;;5.83;5.33;;;21.80;99.90;;;;;;4976400;28;20525;-70
2022/10/23 15:26:48;;;;;;;6.10;5.47;;;21.80;99.90;;;;;;4977407;28;20546;-69
2022/10/23 15:29:15;;;;;;;5.70;5.10;;;21.70;99.90;;;;;;4978226;28;20504;-70
2022/10/23 15:31:44;;;;;;;7.43;6.83;;;21.70;99.90;;;;;;4979352;28;20470;-70
2022/10/23 15:34:15;;;;;;;7.17;6.47;;;21.60;99.90;;;;;;4978063;28;20459;-69
2022/10/23 15:36:43;;;;;;;11.40;5.83;;;21.50;99.90;;;;;;4978397;28;20439;-69
2022/10/23 15:39:11;;;;;;;5.87;5.30;;;21.60;99.90;;;;;;4980234;28;20451;-69
2022/10/23 15:41:39;;;;;;;7.40;6.70;;;21.50;99.90;;;;;;4980201;28;20478;-69
2022/10/23 15:44:08;;;;;;;6.30;4.67;;;21.50;99.90;;;;;;4976252;28;20451;-69
2022/10/23 15:46:35;;;;;;;4.70;4.20;;;21.60;99.90;;;;;;4976195;28;20490;-69
2022/10/23 15:49:01;;;;;;;5.50;4.33;;;21.60;99.90;;;;;;4975611;28;20985;-69
2022/10/23 15:51:30;;;;;;;5.03;4.13;;;21.60;99.90;;;;;;4975851;28;20474;-69
2022/10/23 15:53:56;;;;;;;4.80;4.27;;;21.60;99.90;;;;;;4977547;28;20458;-69
2022/10/23 15:56:24;;;;;;;4.73;4.13;;;21.60;99.90;;;;;;4975977;28;20486;-69
2022/10/23 15:58:50;;;;;;;4.17;3.77;;;21.50;99.90;;;;;;4976424;28;20529;-68
2022/10/23 16:01:17;;;;;;;7.17;4.70;;;21.50;99.90;;;;;;4975200;28;20493;-67
2022/10/23 16:03:44;;;;;;;4.93;3.77;;;21.40;99.90;;;;;;4975595;28;20450;-67
2022/10/23 16:06:15;;;;;;;4.30;3.20;;;21.30;99.90;;;;;;4975572;28;20522;-67
2022/10/23 16:08:43;;;;;;;9.10;4.10;;;21.30;99.90;;;;;;4976168;28;20442;-67
2022/10/23 16:11:15;;;;;;;5.63;3.33;;;21.20;99.90;;;;;;4974996;28;21052;-67
2022/10/23 16:13:42;;;;;;;3.73;3.43;;;21.20;99.90;;;;;;4975491;28;20443;-67
2022/10/23 16:16:09;;;;;;;3.50;3.00;;;21.10;99.90;;;;;;4975361;28;20520;-67
2022/10/23 16:18:36;;;;;;;3.93;2.63;;;21.10;99.90;;;;;;4975035;28;20960;-68
2022/10/23 16:21:03;;;;;;;8.23;3.23;;;21.00;99.90;;;;;;4975208;28;20474;-67
2022/10/23 16:23:32;;;;;;;3.90;2.97;;;21.00;99.90;;;;;;4975205;28;20462;-67
2022/10/23 16:26:04;;;;;;;5.30;3.30;;;21.00;99.90;;;;;;4975287;28;20463;-66
2022/10/23 16:28:31;;;;;;;2.93;2.73;;;20.90;99.90;;;;;;4975694;28;20439;-67
2022/10/23 16:30:57;;;;;;;5.10;2.93;;;20.90;99.90;;;;;;4974759;28;20644;-66
2022/10/23 16:33:24;;;;;;;3.23;3.00;;;20.90;99.90;;;;;;4974802;28;20825;-66
2022/10/23 16:35:51;;;;;;;6.13;3.10;;;20.80;99.90;;;;;;4975233;28;20965;-66
2022/10/23 16:38:18;;;;;;;3.50;3.20;;;20.80;99.90;;;;;;4974973;28;20462;-67
2022/10/23 16:40:50;;;;;;;9.00;3.33;;;20.80;99.90;;;;;;4975124;28;20506;-67
2022/10/23 16:43:19;;;;;;;3.80;2.43;;;20.80;99.90;;;;;;4974845;28;20981;-67
2022/10/23 16:45:46;;;;;;;5.73;3.40;;;20.60;99.90;;;;;;4975059;28;20462;-66
2022/10/23 16:48:13;;;;;;;3.20;2.90;;;20.60;99.90;;;;;;4978125;28;20458;-67
2022/10/23 16:50:40;;;;;;;3.17;2.87;;;20.50;99.90;;;;;;4979004;28;20493;-66
2022/10/23 16:53:07;;;;;;;3.27;3.00;;;20.40;99.90;;;;;;4978807;28;20458;-66
2022/10/23 16:55:33;;;;;;;3.40;3.20;;;20.40;99.90;;;;;;4978492;28;20997;-67
2022/10/23 16:58:00;;;;;;;6.87;3.77;;;20.40;99.90;;;;;;4978737;28;20450;-66